Time;durP1;ratioP1;P1;durP2;ratioP2;P2;SDS_P1;SDS_P2;PMS_P1;PMS_P2;Temp;Humidity;BMP_temperature;BMP_pressure;BME280_temperature;BME280_humidity;BME280_pressure;Samples;Min_cycle;Max_cycle;Signal;HPM_P1;HPM_P2
2020/12/15 00:01:55;;;;;;;10.05;8.77;;;6.30;99.90;;;;;;4910537;29;20095;-73
2020/12/15 00:04:22;;;;;;;10.18;8.27;;;6.20;99.90;;;;;;4935797;29;20027;-73
2020/12/15 00:06:48;;;;;;;13.80;10.20;;;6.20;99.90;;;;;;4917936;29;20031;-74
2020/12/15 00:09:15;;;;;;;11.57;7.97;;;6.10;99.90;;;;;;4933540;29;20031;-73
2020/12/15 00:11:41;;;;;;;9.32;7.20;;;6.00;99.90;;;;;;4903378;29;20028;-74
2020/12/15 00:14:07;;;;;;;7.40;6.18;;;5.90;99.90;;;;;;4930760;29;20031;-73
2020/12/15 00:16:32;;;;;;;6.13;5.15;;;5.90;99.90;;;;;;4937706;29;20506;-73
2020/12/15 00:19:02;;;;;;;5.53;5.00;;;6.00;99.90;;;;;;4937069;29;20363;-73
2020/12/15 00:21:28;;;;;;;7.85;4.68;;;6.00;99.90;;;;;;4921125;29;20110;-73
2020/12/15 00:23:55;;;;;;;6.65;4.88;;;6.20;99.90;;;;;;4921719;29;20039;-73
2020/12/15 00:26:25;;;;;;;4.30;3.78;;;6.20;99.90;;;;;;4938550;29;20035;-73
2020/12/15 00:28:51;;;;;;;5.28;3.55;;;6.20;99.90;;;;;;4935754;29;20024;-73
2020/12/15 00:31:18;;;;;;;6.72;4.40;;;6.10;99.90;;;;;;4931948;29;20047;-73
2020/12/15 00:33:45;;;;;;;5.15;4.10;;;6.10;99.90;;;;;;4936325;29;20038;-73
2020/12/15 00:36:18;;;;;;;6.50;5.53;;;6.10;99.90;;;;;;4920011;29;20055;-74
2020/12/15 00:38:44;;;;;;;6.75;4.90;;;6.10;99.90;;;;;;4931814;29;20095;-75
2020/12/15 00:41:10;;;;;;;5.70;5.10;;;6.00;99.90;;;;;;4944932;29;20019;-74
2020/12/15 00:43:36;;;;;;;7.90;5.20;;;5.80;99.90;;;;;;4930801;29;20066;-74
2020/12/15 00:46:02;;;;;;;6.03;5.03;;;5.70;99.90;;;;;;4930438;29;20024;-74
2020/12/15 00:48:28;;;;;;;4.80;3.90;;;5.70;99.90;;;;;;4932935;29;20020;-74
2020/12/15 00:50:54;;;;;;;4.65;4.15;;;5.70;99.90;;;;;;4933819;29;20343;-74
2020/12/15 00:53:20;;;;;;;4.70;3.40;;;5.70;99.90;;;;;;4932896;29;20027;-74
2020/12/15 00:55:45;;;;;;;4.93;4.22;;;5.80;99.90;;;;;;4916380;29;20087;-74
2020/12/15 00:58:11;;;;;;;4.53;4.00;;;5.80;99.90;;;;;;4916534;29;20127;-72
2020/12/15 01:00:37;;;;;;;4.20;3.58;;;6.00;99.90;;;;;;4934206;29;20043;-75
2020/12/15 01:03:04;;;;;;;5.00;3.58;;;6.30;99.90;;;;;;4933350;29;20020;-74
2020/12/15 01:05:30;;;;;;;3.47;3.17;;;6.40;99.90;;;;;;4917849;29;20032;-73
2020/12/15 01:07:56;;;;;;;4.90;4.40;;;6.60;99.90;;;;;;4916805;29;20094;-73
2020/12/15 01:10:22;;;;;;;5.20;4.20;;;6.60;99.90;;;;;;4926871;29;20039;-73
2020/12/15 01:12:48;;;;;;;5.50;3.90;;;6.70;99.90;;;;;;4910494;29;20047;-75
2020/12/15 01:15:14;;;;;;;3.40;3.00;;;6.70;99.90;;;;;;4927012;29;20036;-75
2020/12/15 01:17:40;;;;;;;4.13;3.40;;;6.70;99.90;;;;;;4927142;29;20034;-74
2020/12/15 01:20:08;;;;;;;3.60;2.97;;;6.70;99.90;;;;;;4934704;29;20095;-74
2020/12/15 01:22:34;;;;;;;4.68;3.70;;;6.60;99.90;;;;;;4917993;29;20023;-74
2020/12/15 01:25:00;;;;;;;4.35;3.13;;;6.50;99.90;;;;;;4914892;29;20059;-74
2020/12/15 01:27:28;;;;;;;4.78;3.75;;;6.40;99.90;;;;;;4928668;29;20032;-73
2020/12/15 01:29:54;;;;;;;3.33;3.03;;;6.30;99.90;;;;;;4929776;29;20027;-74
2020/12/15 01:32:20;;;;;;;4.88;4.00;;;6.30;99.90;;;;;;4931410;29;20035;-74
2020/12/15 01:34:46;;;;;;;5.65;3.75;;;6.30;99.90;;;;;;4929773;29;20028;-74
2020/12/15 01:37:12;;;;;;;4.88;3.38;;;6.30;99.90;;;;;;4933449;29;20113;-72
2020/12/15 01:39:37;;;;;;;4.38;3.88;;;6.30;99.90;;;;;;4912799;29;20036;-73
2020/12/15 01:42:03;;;;;;;4.38;3.33;;;6.20;99.90;;;;;;4930883;29;20026;-75
2020/12/15 01:44:29;;;;;;;3.97;3.28;;;6.20;99.90;;;;;;4929053;29;20031;-76
2020/12/15 01:46:56;;;;;;;4.65;3.38;;;6.10;99.90;;;;;;4931264;29;20032;-75
2020/12/15 01:49:22;;;;;;;3.22;2.92;;;6.10;99.90;;;;;;4916243;29;20095;-77
2020/12/15 01:51:48;;;;;;;3.65;2.75;;;6.10;99.90;;;;;;4911239;29;20032;-75
2020/12/15 01:54:14;;;;;;;3.22;2.90;;;6.20;99.90;;;;;;4930856;29;20031;-80
2020/12/15 01:56:41;;;;;;;3.55;2.83;;;6.20;99.90;;;;;;4931649;29;20024;-75
2020/12/15 01:59:07;;;;;;;4.25;3.63;;;6.20;99.90;;;;;;4933244;29;20032;-73
2020/12/15 02:01:45;;;;;;;4.07;3.42;;;6.20;99.90;;;;;;4911767;29;20043;-73
2020/12/15 02:04:15;;;;;;;4.45;3.05;;;6.20;99.90;;;;;;4903561;29;20039;-77
2020/12/15 02:06:47;;;;;;;2.70;2.40;;;6.20;99.90;;;;;;4911379;29;20047;-73
2020/12/15 02:09:13;;;;;;;3.30;2.70;;;6.20;99.90;;;;;;4915823;29;20574;-71
2020/12/15 02:11:39;;;;;;;4.55;3.60;;;6.20;99.90;;;;;;4931207;29;20040;-73
2020/12/15 02:14:05;;;;;;;2.70;2.47;;;6.20;99.90;;;;;;4932187;29;20039;-74
2020/12/15 02:16:33;;;;;;;3.85;2.65;;;6.20;99.90;;;;;;4929456;29;20036;-75
2020/12/15 02:18:59;;;;;;;3.53;3.22;;;6.30;99.90;;;;;;4927082;29;20036;-74
2020/12/15 02:21:25;;;;;;;4.07;2.95;;;6.40;99.90;;;;;;4932411;29;20110;-74
2020/12/15 02:23:50;;;;;;;3.38;2.55;;;6.40;99.90;;;;;;4910447;29;20052;-73
2020/12/15 02:26:16;;;;;;;3.17;2.88;;;6.50;99.90;;;;;;4920986;29;20032;-74
2020/12/15 02:28:42;;;;;;;3.22;2.55;;;6.50;99.90;;;;;;4906381;29;20035;-74
2020/12/15 02:31:08;;;;;;;3.35;2.47;;;6.60;99.90;;;;;;4928771;29;20086;-72
2020/12/15 02:33:34;;;;;;;2.30;2.10;;;6.70;99.90;;;;;;4933279;29;20094;-73
2020/12/15 02:36:00;;;;;;;2.65;2.45;;;6.70;99.90;;;;;;4930627;29;20043;-74
2020/12/15 02:38:26;;;;;;;2.97;2.42;;;6.70;99.90;;;;;;4930556;29;20558;-74
2020/12/15 02:40:52;;;;;;;3.17;2.80;;;6.70;99.90;;;;;;4910215;29;20036;-74
2020/12/15 02:43:18;;;;;;;3.38;2.40;;;6.60;99.90;;;;;;4932647;29;20030;-74
2020/12/15 02:45:44;;;;;;;2.75;2.45;;;6.50;99.90;;;;;;4929592;29;20099;-74
2020/12/15 02:48:10;;;;;;;3.15;2.85;;;6.40;99.90;;;;;;4906606;29;20448;-73
2020/12/15 02:50:36;;;;;;;2.30;2.10;;;6.30;99.90;;;;;;4908906;29;20071;-74
2020/12/15 02:53:02;;;;;;;2.78;2.58;;;6.20;99.90;;;;;;4908620;29;20039;-72
2020/12/15 02:55:28;;;;;;;3.17;2.88;;;6.10;99.90;;;;;;4913352;29;20031;-77
2020/12/15 02:57:54;;;;;;;2.70;2.45;;;6.00;99.90;;;;;;4928928;29;20446;-74
2020/12/15 03:00:20;;;;;;;4.38;2.97;;;6.00;99.90;;;;;;4932935;29;20031;-72
2020/12/15 03:02:48;;;;;;;3.30;2.72;;;6.00;99.90;;;;;;4933092;29;20043;-74
2020/12/15 03:05:14;;;;;;;2.47;2.28;;;5.90;99.90;;;;;;4938142;29;20020;-73
2020/12/15 03:07:40;;;;;;;3.50;2.90;;;5.90;99.90;;;;;;4936935;29;20031;-72
2020/12/15 03:10:08;;;;;;;3.72;2.42;;;5.90;99.90;;;;;;4918823;29;20028;-74
2020/12/15 03:12:34;;;;;;;3.38;3.03;;;5.90;99.90;;;;;;4946131;29;20127;-74
2020/12/15 03:15:00;;;;;;;2.97;2.67;;;5.80;99.90;;;;;;4937813;29;20672;-74
2020/12/15 03:17:26;;;;;;;3.45;2.50;;;5.70;99.90;;;;;;4935792;29;20087;-73
2020/12/15 03:19:52;;;;;;;3.20;2.80;;;5.70;99.90;;;;;;4933403;29;20035;-74
2020/12/15 03:22:18;;;;;;;3.75;3.20;;;5.60;99.90;;;;;;4913758;29;20023;-74
2020/12/15 03:24:44;;;;;;;3.55;3.25;;;5.50;99.90;;;;;;4911101;29;20507;-74
2020/12/15 03:27:10;;;;;;;3.10;2.78;;;5.40;99.90;;;;;;4924797;29;20386;-74
2020/12/15 03:29:36;;;;;;;3.17;2.88;;;5.30;99.90;;;;;;4935632;29;20031;-74
2020/12/15 03:32:03;;;;;;;2.83;2.47;;;5.20;99.90;;;;;;4918851;29;20043;-74
2020/12/15 03:34:29;;;;;;;3.30;2.92;;;5.20;99.90;;;;;;4920625;29;20418;-74
2020/12/15 03:36:54;;;;;;;3.00;2.45;;;5.20;99.90;;;;;;4934119;29;20055;-74
2020/12/15 03:39:20;;;;;;;2.72;2.25;;;5.20;99.90;;;;;;4932907;29;20103;-74
2020/12/15 03:41:46;;;;;;;3.45;3.15;;;5.20;99.90;;;;;;4913888;29;20407;-77
2020/12/15 03:44:13;;;;;;;4.43;3.80;;;5.30;99.90;;;;;;4924330;29;20384;-72
2020/12/15 03:46:39;;;;;;;3.58;2.97;;;5.30;99.90;;;;;;4931667;29;20499;-74
2020/12/15 03:49:08;;;;;;;3.10;2.80;;;5.30;99.90;;;;;;4937140;29;20569;-74
2020/12/15 03:51:34;;;;;;;4.32;2.53;;;5.20;99.90;;;;;;4931991;29;20032;-74
2020/12/15 03:54:00;;;;;;;2.13;1.92;;;5.20;99.90;;;;;;4931842;29;20028;-72
2020/12/15 03:56:32;;;;;;;1.95;1.83;;;5.30;99.90;;;;;;4916515;29;20028;-74
2020/12/15 03:58:58;;;;;;;2.58;2.25;;;5.50;99.90;;;;;;4914508;29;20039;-73
2020/12/15 04:01:27;;;;;;;2.47;2.28;;;6.00;99.90;;;;;;4910528;29;20036;-73
2020/12/15 04:03:55;;;;;;;3.17;2.22;;;6.40;99.90;;;;;;4932007;29;20458;-72
2020/12/15 04:06:30;;;;;;;2.15;1.88;;;6.50;99.90;;;;;;4910522;29;20064;-74
2020/12/15 04:08:59;;;;;;;2.40;2.20;;;6.70;99.90;;;;;;4924635;29;20056;-74
2020/12/15 04:11:25;;;;;;;1.77;1.67;;;6.80;99.90;;;;;;4931908;29;20036;-73
2020/12/15 04:13:51;;;;;;;3.38;2.30;;;6.90;99.90;;;;;;4936303;29;20042;-72
2020/12/15 04:16:17;;;;;;;3.00;2.03;;;6.90;99.90;;;;;;4930682;29;20283;-73
2020/12/15 04:18:43;;;;;;;5.60;2.30;;;6.80;99.90;;;;;;4930170;29;20043;-74
2020/12/15 04:21:10;;;;;;;2.25;2.05;;;6.80;99.90;;;;;;4916471;29;20028;-74
2020/12/15 04:23:37;;;;;;;4.88;2.45;;;6.80;99.90;;;;;;4933951;29;20024;-73
2020/12/15 04:26:03;;;;;;;3.35;2.25;;;6.70;99.90;;;;;;4932170;29;20040;-72
2020/12/15 04:28:29;;;;;;;4.82;3.15;;;6.40;99.90;;;;;;4938736;29;20043;-74
2020/12/15 04:30:55;;;;;;;5.75;4.13;;;6.30;99.90;;;;;;4933833;29;20032;-76
2020/12/15 04:33:21;;;;;;;3.92;3.28;;;6.20;99.90;;;;;;4929931;29;20023;-74
2020/12/15 04:35:47;;;;;;;5.55;3.75;;;6.10;99.90;;;;;;4915212;29;20036;-74
2020/12/15 04:38:13;;;;;;;6.10;3.63;;;6.00;99.90;;;;;;4929073;29;20028;-76
2020/12/15 04:40:39;;;;;;;6.22;4.38;;;5.90;99.90;;;;;;4902744;29;20024;-74
2020/12/15 04:43:07;;;;;;;7.38;4.97;;;5.70;99.90;;;;;;4930703;29;20028;-74
2020/12/15 04:45:36;;;;;;;4.18;3.08;;;5.60;99.90;;;;;;4935317;29;20403;-73
2020/12/15 04:48:07;;;;;;;3.40;2.85;;;5.60;99.90;;;;;;4928909;29;20024;-73
2020/12/15 04:50:36;;;;;;;7.93;4.67;;;5.50;99.90;;;;;;4914123;29;20059;-74
2020/12/15 04:53:10;;;;;;;4.53;3.20;;;5.50;99.90;;;;;;4916739;29;20032;-74
2020/12/15 04:55:37;;;;;;;3.30;2.60;;;5.50;99.90;;;;;;4935644;29;20031;-73
2020/12/15 04:58:04;;;;;;;3.45;2.95;;;5.50;99.90;;;;;;4905965;29;20028;-74
2020/12/15 05:00:32;;;;;;;3.10;2.80;;;5.50;99.90;;;;;;4933489;29;20023;-73
2020/12/15 05:03:02;;;;;;;3.85;3.13;;;5.50;99.90;;;;;;4932302;29;20027;-74
2020/12/15 05:05:30;;;;;;;3.55;3.08;;;5.50;99.90;;;;;;4928591;29;20020;-74
2020/12/15 05:08:01;;;;;;;2.55;2.35;;;5.50;99.90;;;;;;4933862;29;20604;-73
2020/12/15 05:10:27;;;;;;;3.13;2.42;;;5.50;99.90;;;;;;4926706;29;20038;-74
2020/12/15 05:12:53;;;;;;;3.42;3.13;;;5.60;99.90;;;;;;4930562;29;20083;-72
2020/12/15 05:15:19;;;;;;;3.30;2.88;;;5.70;99.90;;;;;;4934627;29;20083;-73
2020/12/15 05:17:46;;;;;;;3.65;2.90;;;6.00;99.90;;;;;;4932389;29;20035;-73
2020/12/15 05:20:30;;;;;;;3.25;2.63;;;6.10;99.90;;;;;;4923848;29;20095;-73
2020/12/15 05:22:57;;;;;;;6.78;2.83;;;6.00;99.90;;;;;;4928326;29;20141;-73
2020/12/15 05:25:31;;;;;;;3.97;3.58;;;5.90;99.90;;;;;;4906864;29;20107;-74
2020/12/15 05:28:00;;;;;;;4.13;3.22;;;5.90;99.90;;;;;;4928040;29;20714;-74
2020/12/15 05:30:29;;;;;;;3.38;2.88;;;5.80;99.90;;;;;;4924716;29;20027;-74
2020/12/15 05:32:59;;;;;;;2.60;2.40;;;5.60;99.90;;;;;;4910689;29;20036;-75
2020/12/15 05:35:38;;;;;;;3.97;2.67;;;5.50;99.90;;;;;;4934203;29;20028;-74
2020/12/15 05:38:06;;;;;;;5.07;3.35;;;5.40;99.90;;;;;;4924310;29;20031;-73
2020/12/15 05:40:33;;;;;;;3.28;2.60;;;5.60;99.90;;;;;;4930436;29;20562;-73
2020/12/15 05:43:01;;;;;;;3.33;2.85;;;5.80;99.90;;;;;;4932459;29;20395;-74
2020/12/15 05:45:31;;;;;;;4.95;3.25;;;5.90;99.90;;;;;;4925465;29;20035;-74
2020/12/15 05:48:06;;;;;;;3.38;3.00;;;5.80;99.90;;;;;;4930036;29;20028;-73
2020/12/15 05:50:36;;;;;;;3.33;2.90;;;5.80;99.90;;;;;;4911876;29;20478;-74
2020/12/15 05:53:04;;;;;;;4.30;3.22;;;5.70;99.90;;;;;;4926490;29;20448;-74
2020/12/15 05:55:32;;;;;;;3.35;2.88;;;5.60;99.90;;;;;;4930083;29;20035;-73
2020/12/15 05:57:59;;;;;;;4.50;3.50;;;5.40;99.90;;;;;;4916122;29;20498;-74
2020/12/15 06:00:31;;;;;;;4.35;3.20;;;5.30;99.90;;;;;;4932199;29;20028;-74
2020/12/15 06:03:07;;;;;;;4.35;3.00;;;5.30;99.90;;;;;;4930647;29;20028;-74
2020/12/15 06:05:37;;;;;;;3.17;2.28;;;5.20;99.90;;;;;;4923385;29;20119;-73
2020/12/15 06:08:05;;;;;;;4.07;3.22;;;5.40;99.90;;;;;;4925653;29;20020;-73
2020/12/15 06:10:32;;;;;;;3.55;3.00;;;5.50;99.90;;;;;;4908916;29;20128;-73
2020/12/15 06:13:00;;;;;;;5.00;3.30;;;5.50;99.90;;;;;;4932609;29;20083;-74
2020/12/15 06:15:27;;;;;;;4.75;3.10;;;5.60;99.90;;;;;;4931480;29;20048;-74
2020/12/15 06:17:57;;;;;;;4.38;3.55;;;5.50;99.90;;;;;;4928771;29;20063;-75
2020/12/15 06:20:23;;;;;;;5.03;3.65;;;5.50;99.90;;;;;;4929039;29;20047;-73
2020/12/15 06:22:54;;;;;;;6.72;4.13;;;5.50;99.90;;;;;;4926135;29;20035;-73
2020/12/15 06:25:29;;;;;;;5.28;4.07;;;5.50;99.90;;;;;;4915784;29;20023;-73
2020/12/15 06:28:07;;;;;;;6.18;4.00;;;5.50;99.90;;;;;;4928427;29;20035;-73
2020/12/15 06:30:35;;;;;;;5.30;4.18;;;5.40;99.90;;;;;;4921652;29;20511;-73
2020/12/15 06:33:03;;;;;;;4.95;3.95;;;5.40;99.90;;;;;;4925602;29;20036;-73
2020/12/15 06:35:29;;;;;;;11.27;4.78;;;5.40;99.90;;;;;;4924022;29;20028;-73
2020/12/15 06:37:55;;;;;;;6.70;3.47;;;5.40;99.90;;;;;;4924640;29;20042;-73
2020/12/15 06:40:21;;;;;;;5.10;4.38;;;5.40;99.90;;;;;;4922838;29;20043;-73
2020/12/15 06:42:51;;;;;;;8.32;4.45;;;5.40;99.90;;;;;;4927031;29;20028;-74
2020/12/15 06:45:21;;;;;;;5.93;4.88;;;5.40;99.90;;;;;;4925175;29;20116;-72
2020/12/15 06:48:05;;;;;;;4.03;3.58;;;5.40;99.90;;;;;;4928076;29;20095;-74
2020/12/15 06:50:45;;;;;;;5.50;3.55;;;5.40;99.90;;;;;;4921010;29;20032;-74
2020/12/15 06:53:15;;;;;;;4.57;3.67;;;5.50;99.90;;;;;;4926863;29;20028;-73
2020/12/15 06:55:43;;;;;;;6.20;5.07;;;5.60;99.90;;;;;;4913375;29;20034;-73
2020/12/15 06:58:08;;;;;;;6.32;4.90;;;5.60;99.90;;;;;;4918652;29;20479;-74
2020/12/15 07:00:41;;;;;;;5.90;4.75;;;5.70;99.90;;;;;;4930151;29;20052;-75
2020/12/15 07:03:08;;;;;;;5.20;4.03;;;5.60;99.90;;;;;;4927037;29;20159;-74
2020/12/15 07:05:35;;;;;;;5.10;3.97;;;5.70;99.90;;;;;;4927030;29;20055;-74
2020/12/15 07:08:06;;;;;;;4.95;4.07;;;5.70;99.90;;;;;;4919702;29;20428;-74
2020/12/15 07:10:33;;;;;;;3.90;3.38;;;5.80;99.90;;;;;;4923948;29;20036;-73
2020/12/15 07:12:59;;;;;;;10.75;4.50;;;5.80;99.90;;;;;;4922692;29;20447;-74
2020/12/15 07:15:26;;;;;;;10.63;6.35;;;6.00;99.90;;;;;;4923537;29;20075;-74
2020/12/15 07:17:52;;;;;;;12.02;6.35;;;6.20;99.90;;;;;;4930659;29;20032;-74
2020/12/15 07:20:22;;;;;;;18.58;8.98;;;6.30;99.90;;;;;;4934111;29;20047;-76
2020/12/15 07:22:48;;;;;;;48.42;33.53;;;6.30;99.90;;;;;;4924747;29;20059;-74
2020/12/15 07:25:15;;;;;;;23.80;15.75;;;6.20;99.90;;;;;;4907507;29;20028;-74
2020/12/15 07:27:42;;;;;;;28.52;17.85;;;6.20;99.90;;;;;;4927374;29;20032;-73
2020/12/15 07:30:19;;;;;;;42.03;25.40;;;6.30;99.90;;;;;;4926895;29;20122;-76
2020/12/15 07:32:46;;;;;;;33.33;21.33;;;6.40;99.90;;;;;;4926041;29;20491;-74
2020/12/15 07:35:21;;;;;;;54.15;32.65;;;6.50;99.90;;;;;;4933850;29;20159;-66
2020/12/15 07:37:48;;;;;;;56.00;34.90;;;6.60;99.90;;;;;;4924148;29;20491;-66
2020/12/15 07:40:18;;;;;;;24.13;16.85;;;6.40;99.90;;;;;;4923503;29;20024;-64
2020/12/15 07:42:54;;;;;;;21.60;15.07;;;6.30;99.90;;;;;;4925759;29;20550;-66
2020/12/15 07:45:21;;;;;;;21.58;14.40;;;6.40;99.90;;;;;;4914965;29;20032;-67
2020/12/15 07:47:47;;;;;;;19.95;15.10;;;6.40;99.90;;;;;;4930719;29;20056;-71
2020/12/15 07:50:15;;;;;;;15.32;9.68;;;6.40;99.90;;;;;;4929723;29;20035;-71
2020/12/15 07:52:41;;;;;;;14.40;7.10;;;6.40;99.90;;;;;;4920784;29;20035;-71
2020/12/15 07:55:14;;;;;;;7.57;5.70;;;6.40;99.90;;;;;;4929010;29;20026;-70
2020/12/15 07:57:41;;;;;;;12.80;9.65;;;6.70;99.90;;;;;;4921999;29;20043;-70
2020/12/15 08:00:10;;;;;;;14.68;10.60;;;6.90;99.90;;;;;;4931259;29;20021;-70
2020/12/15 08:02:36;;;;;;;16.58;11.20;;;7.10;99.90;;;;;;4930076;29;20039;-72
2020/12/15 08:05:06;;;;;;;19.58;13.48;;;7.20;99.90;;;;;;4935173;29;20653;-71
2020/12/15 08:07:44;;;;;;;13.50;9.10;;;7.30;99.90;;;;;;4930944;29;20135;-71
2020/12/15 08:10:10;;;;;;;13.27;8.75;;;7.50;99.90;;;;;;4922062;29;20044;-70
2020/12/15 08:12:37;;;;;;;8.73;6.35;;;7.60;99.90;;;;;;4929553;29;20548;-70
2020/12/15 08:15:03;;;;;;;14.32;5.85;;;7.80;99.90;;;;;;4928220;29;20517;-70
2020/12/15 08:17:32;;;;;;;10.38;6.53;;;8.00;99.90;;;;;;4929823;29;20356;-70
2020/12/15 08:20:04;;;;;;;17.30;6.10;;;8.00;99.90;;;;;;4929226;29;20333;-70
2020/12/15 08:22:33;;;;;;;14.57;6.50;;;8.00;99.90;;;;;;4908744;29;20145;-70
2020/12/15 08:25:00;;;;;;;15.02;6.53;;;8.10;99.90;;;;;;4937143;29;20111;-70
2020/12/15 08:27:28;;;;;;;7.57;5.25;;;8.10;99.90;;;;;;4922152;29;20020;-70
2020/12/15 08:29:54;;;;;;;12.15;5.70;;;8.10;99.90;;;;;;4907052;29;20464;-70
2020/12/15 08:32:28;;;;;;;8.35;5.68;;;8.20;99.90;;;;;;4927388;29;20031;-70
2020/12/15 08:35:01;;;;;;;7.85;5.38;;;8.30;99.90;;;;;;4917217;29;20518;-70
2020/12/15 08:37:28;;;;;;;11.18;4.97;;;8.40;99.90;;;;;;4934070;29;20024;-70
2020/12/15 08:39:54;;;;;;;9.38;5.57;;;8.60;99.90;;;;;;4928678;29;20026;-71
2020/12/15 08:42:20;;;;;;;12.02;5.45;;;8.70;99.90;;;;;;4925187;29;20071;-71
2020/12/15 08:44:47;;;;;;;13.23;4.88;;;8.90;99.90;;;;;;4921683;29;20070;-71
2020/12/15 08:47:17;;;;;;;9.27;4.35;;;9.00;99.90;;;;;;4927793;29;20032;-72
2020/12/15 08:49:44;;;;;;;16.08;5.47;;;9.00;99.90;;;;;;4907565;29;20056;-71
2020/12/15 08:52:11;;;;;;;9.77;5.03;;;9.10;99.90;;;;;;4934495;29;20051;-71
2020/12/15 08:54:43;;;;;;;9.23;4.57;;;9.20;99.90;;;;;;4931678;29;20031;-71
2020/12/15 08:57:16;;;;;;;8.35;5.22;;;9.40;99.90;;;;;;4929351;29;20068;-71
2020/12/15 08:59:42;;;;;;;7.53;4.88;;;9.50;99.90;;;;;;4932783;29;20032;-71
2020/12/15 09:02:11;;;;;;;7.10;4.63;;;9.60;99.90;;;;;;4930676;29;20467;-71
2020/12/15 09:04:38;;;;;;;9.10;5.00;;;9.70;99.90;;;;;;4934812;29;20027;-71
2020/12/15 09:07:14;;;;;;;7.63;4.30;;;9.80;99.90;;;;;;4928597;29;20050;-71
2020/12/15 09:09:40;;;;;;;5.10;4.38;;;10.00;99.90;;;;;;4928698;29;20483;-71
2020/12/15 09:12:06;;;;;;;6.70;5.30;;;10.20;99.90;;;;;;4926516;29;20488;-71
2020/12/15 09:14:33;;;;;;;6.78;4.50;;;10.40;99.90;;;;;;4919723;29;20396;-71
2020/12/15 09:16:59;;;;;;;9.13;4.38;;;10.50;99.90;;;;;;4932416;29;20506;-71
2020/12/15 09:19:27;;;;;;;8.50;4.75;;;10.60;99.90;;;;;;4927503;29;20465;-71
2020/12/15 09:22:01;;;;;;;10.02;4.10;;;10.80;99.90;;;;;;4929722;29;20083;-71
2020/12/15 09:24:28;;;;;;;7.95;3.53;;;10.90;99.90;;;;;;4921867;29;20024;-71
2020/12/15 09:26:55;;;;;;;5.30;4.32;;;11.10;99.90;;;;;;4925647;29;20032;-71
2020/12/15 09:29:21;;;;;;;5.90;3.38;;;11.00;99.90;;;;;;4928584;29;20040;-71
2020/12/15 09:31:52;;;;;;;4.78;3.45;;;11.10;99.90;;;;;;4929932;29;20040;-71
2020/12/15 09:34:19;;;;;;;8.63;3.65;;;11.10;99.90;;;;;;4927841;29;20364;-71
2020/12/15 09:36:56;;;;;;;11.43;3.38;;;11.20;99.90;;;;;;4928988;29;20029;-71
2020/12/15 09:39:24;;;;;;;14.52;4.90;;;11.10;99.90;;;;;;4937201;29;20031;-71
2020/12/15 09:41:50;;;;;;;9.50;4.25;;;11.00;99.90;;;;;;4935986;29;20030;-71
2020/12/15 09:44:16;;;;;;;9.02;4.15;;;10.70;99.90;;;;;;4926736;29;20074;-71
2020/12/15 09:46:42;;;;;;;10.38;5.43;;;10.60;99.90;;;;;;4932293;29;20157;-71
2020/12/15 09:49:08;;;;;;;11.90;4.65;;;10.30;99.90;;;;;;4926077;29;20491;-71
2020/12/15 09:51:34;;;;;;;11.23;5.13;;;10.10;99.90;;;;;;4927394;29;20027;-71
2020/12/15 09:54:03;;;;;;;9.43;3.95;;;10.10;99.90;;;;;;4919764;29;20403;-71
2020/12/15 09:56:30;;;;;;;5.75;3.97;;;10.10;99.90;;;;;;4928156;29;20020;-71
2020/12/15 09:58:56;;;;;;;5.70;3.88;;;10.10;99.90;;;;;;4920608;29;20071;-71
2020/12/15 10:01:22;;;;;;;8.13;3.55;;;10.10;99.90;;;;;;4922167;29;20028;-71
2020/12/15 10:03:48;;;;;;;4.15;3.75;;;10.00;99.90;;;;;;4920527;29;20023;-71
2020/12/15 10:06:15;;;;;;;5.60;3.63;;;10.00;99.90;;;;;;4909604;29;20036;-71
2020/12/15 10:08:42;;;;;;;6.85;4.57;;;10.00;99.90;;;;;;4926935;29;20028;-71
2020/12/15 10:11:17;;;;;;;3.83;3.45;;;10.00;99.90;;;;;;4925168;29;20079;-71
2020/12/15 10:13:43;;;;;;;4.20;3.80;;;10.20;99.90;;;;;;4924252;29;20494;-71
2020/12/15 10:16:09;;;;;;;9.90;3.38;;;10.50;99.90;;;;;;4927703;29;20066;-71
2020/12/15 10:18:39;;;;;;;5.00;4.28;;;10.80;99.90;;;;;;4927584;29;20477;-71
2020/12/15 10:21:07;;;;;;;7.85;4.13;;;11.00;99.90;;;;;;4922110;29;20024;-71
2020/12/15 10:23:35;;;;;;;6.63;4.53;;;11.20;99.90;;;;;;4918123;29;20553;-71
2020/12/15 10:26:02;;;;;;;6.18;4.45;;;11.20;99.90;;;;;;4909608;29;20580;-71
2020/12/15 10:28:31;;;;;;;5.10;4.30;;;11.30;99.90;;;;;;4915846;29;20086;-71
2020/12/15 10:30:57;;;;;;;5.10;4.45;;;11.30;99.90;;;;;;4930306;29;20499;-71
2020/12/15 10:33:23;;;;;;;6.03;4.22;;;11.50;99.90;;;;;;4925870;29;21074;-71
2020/12/15 10:35:49;;;;;;;10.13;4.80;;;11.50;99.90;;;;;;4910859;29;20035;-71
2020/12/15 10:38:15;;;;;;;3.85;3.50;;;11.60;99.90;;;;;;4925189;29;20510;-71
2020/12/15 10:40:41;;;;;;;6.03;5.18;;;11.70;99.90;;;;;;4923063;29;20059;-71
2020/12/15 10:43:10;;;;;;;7.35;4.40;;;11.60;99.90;;;;;;4926583;29;20032;-71
2020/12/15 10:45:39;;;;;;;8.35;5.40;;;11.50;99.90;;;;;;4926093;29;20095;-71
2020/12/15 10:48:05;;;;;;;6.35;4.88;;;11.50;99.90;;;;;;4923949;29;20111;-71
2020/12/15 10:50:31;;;;;;;7.72;5.15;;;11.70;99.90;;;;;;4929794;29;20023;-71
2020/12/15 10:52:57;;;;;;;7.10;6.15;;;11.80;99.90;;;;;;4925015;29;20039;-71
2020/12/15 10:55:26;;;;;;;11.43;6.78;;;11.90;99.90;;;;;;4924230;29;20034;-71
2020/12/15 10:57:52;;;;;;;11.45;6.15;;;11.90;99.90;;;;;;4908767;29;20569;-71
2020/12/15 11:00:21;;;;;;;5.93;5.25;;;11.90;99.90;;;;;;4925384;29;20027;-71
2020/12/15 11:02:47;;;;;;;7.45;5.35;;;12.00;99.90;;;;;;4921835;29;20139;-71
2020/12/15 11:05:12;;;;;;;12.90;6.88;;;11.90;99.90;;;;;;4931413;29;20063;-72
2020/12/15 11:07:38;;;;;;;6.93;5.75;;;11.80;99.90;;;;;;4927288;29;20032;-72
2020/12/15 11:10:04;;;;;;;6.53;5.93;;;11.70;99.90;;;;;;4926086;29;20150;-72
2020/12/15 11:12:30;;;;;;;5.82;5.22;;;11.60;99.90;;;;;;4929772;29;20032;-72
2020/12/15 11:14:56;;;;;;;7.13;5.65;;;11.70;99.90;;;;;;4929648;29;20515;-72
2020/12/15 11:17:22;;;;;;;11.60;6.15;;;11.80;99.90;;;;;;4911308;29;20028;-72
2020/12/15 11:19:48;;;;;;;6.65;5.93;;;12.00;99.90;;;;;;4925329;29;20028;-71
2020/12/15 11:22:14;;;;;;;11.25;6.32;;;12.00;99.90;;;;;;4923103;29;20020;-72
2020/12/15 11:24:43;;;;;;;9.50;6.57;;;11.70;99.90;;;;;;4924299;29;20132;-72
2020/12/15 11:27:09;;;;;;;9.43;6.50;;;11.60;99.90;;;;;;4922864;29;20025;-71
2020/12/15 11:29:35;;;;;;;8.98;5.63;;;11.70;99.90;;;;;;4936667;29;20080;-72
2020/12/15 11:32:01;;;;;;;7.35;5.43;;;11.80;99.90;;;;;;4928033;29;20079;-72
2020/12/15 11:34:27;;;;;;;7.35;5.38;;;11.80;99.90;;;;;;4923562;29;20028;-72
2020/12/15 11:36:54;;;;;;;6.28;4.50;;;11.80;99.90;;;;;;4929919;29;20024;-71
2020/12/15 11:39:24;;;;;;;10.20;6.20;;;11.80;99.90;;;;;;4937518;29;20032;-72
2020/12/15 11:41:51;;;;;;;16.98;5.63;;;11.70;99.90;;;;;;4931757;29;20029;-72
2020/12/15 11:44:18;;;;;;;11.15;8.15;;;11.70;99.90;;;;;;4935077;29;20111;-72
2020/12/15 11:46:45;;;;;;;7.22;5.85;;;11.90;99.90;;;;;;4930851;29;20086;-72
2020/12/15 11:49:10;;;;;;;4.80;4.07;;;12.00;99.90;;;;;;4929679;29;20114;-71
2020/12/15 11:51:36;;;;;;;10.63;4.70;;;12.20;99.90;;;;;;4932433;29;20534;-72
2020/12/15 11:54:02;;;;;;;8.18;4.55;;;12.40;99.90;;;;;;4910747;29;20407;-72
2020/12/15 11:56:28;;;;;;;13.10;5.05;;;12.30;99.90;;;;;;4939086;29;20054;-72
2020/12/15 11:58:54;;;;;;;10.82;4.95;;;12.40;99.90;;;;;;4914013;29;20523;-72
2020/12/15 12:01:20;;;;;;;4.95;4.45;;;12.30;99.90;;;;;;4934264;29;20047;-72
2020/12/15 12:03:46;;;;;;;7.93;4.68;;;12.20;99.90;;;;;;4917461;29;20028;-72
2020/12/15 12:06:12;;;;;;;13.68;4.22;;;12.10;99.90;;;;;;4934590;29;20051;-72
2020/12/15 12:08:38;;;;;;;11.15;4.20;;;12.00;99.90;;;;;;4932232;29;20036;-72
2020/12/15 12:11:04;;;;;;;8.60;4.68;;;12.00;99.90;;;;;;4934341;29;20106;-72
2020/12/15 12:13:30;;;;;;;15.43;5.80;;;11.90;99.90;;;;;;4936723;29;20032;-72
2020/12/15 12:15:55;;;;;;;7.13;5.65;;;11.80;99.90;;;;;;4930260;29;20032;-72
2020/12/15 12:18:21;;;;;;;12.23;6.07;;;11.70;99.90;;;;;;4936965;29;20023;-72
2020/12/15 12:20:48;;;;;;;11.20;6.85;;;11.60;99.90;;;;;;4929081;29;20047;-72
2020/12/15 12:23:14;;;;;;;9.73;7.18;;;11.60;99.90;;;;;;4929855;29;20086;-72
2020/12/15 12:25:39;;;;;;;7.78;6.05;;;11.50;99.90;;;;;;4932735;29;20028;-72
2020/12/15 12:28:05;;;;;;;10.68;5.93;;;11.50;99.90;;;;;;4936433;29;20109;-72
2020/12/15 12:30:31;;;;;;;8.20;6.03;;;11.50;99.90;;;;;;4932006;29;20027;-72
2020/12/15 12:32:57;;;;;;;6.28;5.07;;;11.60;99.90;;;;;;4935004;29;20042;-73
2020/12/15 12:35:23;;;;;;;9.32;5.90;;;11.60;99.90;;;;;;4913577;29;20032;-73
2020/12/15 12:37:49;;;;;;;12.85;7.55;;;11.50;99.90;;;;;;4929748;29;20036;-71
2020/12/15 12:40:14;;;;;;;11.20;8.40;;;11.40;99.90;;;;;;4917262;29;20032;-71
2020/12/15 12:42:40;;;;;;;21.23;7.53;;;11.40;99.90;;;;;;4933011;29;20032;-72
2020/12/15 12:45:07;;;;;;;8.02;6.22;;;11.40;99.90;;;;;;4913435;29;20032;-71
2020/12/15 12:47:33;;;;;;;23.48;6.93;;;11.40;99.90;;;;;;4923589;29;20055;-71
2020/12/15 12:49:59;;;;;;;10.73;7.07;;;11.30;99.90;;;;;;4930599;29;20529;-71
2020/12/15 12:52:25;;;;;;;11.07;6.40;;;11.20;99.90;;;;;;4909383;29;20051;-71